createdAt,value
2023-05-25T00:02:31.441Z,27.08
2023-05-25T00:05:04.474Z,25.30
2023-05-25T00:07:51.313Z,27.10
2023-05-25T00:10:24.973Z,27.48
2023-05-25T00:13:11.385Z,26.15
2023-05-25T00:15:44.607Z,25.75
2023-05-25T00:18:31.330Z,25.40
2023-05-25T00:21:06.792Z,25.05
2023-05-25T00:23:53.345Z,28.05
2023-05-25T00:26:26.422Z,28.25
2023-05-25T00:29:13.353Z,28.08
2023-05-25T00:31:46.439Z,28.92
2023-05-25T00:34:33.349Z,26.00
2023-05-25T00:37:06.452Z,27.38
2023-05-25T00:39:53.343Z,27.58
2023-05-25T00:42:28.175Z,28.85
2023-05-25T00:45:22.359Z,28.33
2023-05-25T00:48:18.379Z,29.35
2023-05-25T00:51:12.358Z,29.23
2023-05-25T00:53:59.356Z,29.77
2023-05-25T00:56:39.524Z,28.00
2023-05-25T00:59:42.346Z,29.92
2023-05-25T01:02:20.903Z,28.52
2023-05-25T01:05:09.360Z,28.35
2023-05-25T01:07:43.488Z,28.38
2023-05-25T01:10:32.393Z,28.05
2023-05-25T01:13:08.452Z,28.90
2023-05-25T01:15:56.399Z,27.63
2023-05-25T01:18:29.475Z,28.45
2023-05-25T01:21:26.383Z,29.63
2023-05-25T01:24:05.511Z,28.98
2023-05-25T01:27:02.374Z,28.08
2023-05-25T01:29:39.474Z,28.48
2023-05-25T01:32:27.422Z,29.17
2023-05-25T01:35:02.502Z,26.65
2023-05-25T01:37:56.438Z,27.77
2023-05-25T01:40:36.423Z,28.83
2023-05-25T01:43:30.395Z,27.00
2023-05-25T01:46:42.515Z,28.65
2023-05-25T01:49:38.390Z,28.80
2023-05-25T01:52:24.504Z,28.55
2023-05-25T01:55:25.382Z,28.73
2023-05-25T01:58:09.444Z,27.83
2023-05-25T02:01:04.409Z,29.00
2023-05-25T02:04:00.420Z,29.77
2023-05-25T02:06:47.395Z,30.88
2023-05-25T02:09:27.388Z,28.92
2023-05-25T02:12:21.406Z,30.42
2023-05-25T02:15:08.403Z,29.38
2023-05-25T02:17:41.567Z,26.65
2023-05-25T02:20:28.559Z,28.58
2023-05-25T02:23:08.434Z,28.73
2023-05-25T02:26:02.421Z,26.08
2023-05-25T02:28:49.396Z,27.40
2023-05-25T02:31:22.627Z,27.23
2023-05-25T02:34:09.422Z,26.98
2023-05-25T02:36:43.439Z,26.55
2023-05-25T02:39:32.464Z,25.38
2023-05-25T02:42:05.986Z,26.83
2023-05-25T02:44:54.432Z,26.08
2023-05-25T02:47:27.562Z,26.63
2023-05-25T02:50:14.406Z,26.58
2023-05-25T02:52:47.519Z,26.70
2023-05-25T02:55:34.432Z,24.90
2023-05-25T02:58:07.995Z,25.15
2023-05-25T03:00:54.467Z,25.10
2023-05-25T03:03:27.522Z,25.77
2023-05-25T03:06:14.447Z,25.95
2023-05-25T03:08:47.523Z,24.77
2023-05-25T03:11:35.456Z,25.60
2023-05-25T03:14:15.414Z,24.83
2023-05-25T03:17:09.437Z,26.58
2023-05-25T03:20:03.466Z,25.02
2023-05-25T03:22:57.426Z,26.40
2023-05-25T03:25:44.675Z,25.65
2023-05-25T03:28:18.524Z,25.30
2023-05-25T03:31:05.436Z,25.98
2023-05-25T03:33:48.441Z,26.15
2023-05-25T03:36:37.668Z,25.67
2023-05-25T03:39:12.570Z,24.25
2023-05-25T03:41:59.438Z,26.30
2023-05-25T03:44:32.550Z,26.73
2023-05-25T03:47:20.442Z,25.83
2023-05-25T03:49:53.561Z,24.90
2023-05-25T03:52:40.446Z,24.60
2023-05-25T03:55:15.275Z,24.08
2023-05-25T03:58:02.438Z,25.10
2023-05-25T04:00:42.451Z,25.15
2023-05-25T04:03:36.753Z,24.88
2023-05-25T04:06:25.535Z,23.77
2023-05-25T04:08:59.533Z,22.92
2023-05-25T04:11:46.434Z,22.98
2023-05-25T04:14:21.262Z,23.15
2023-05-25T04:17:08.452Z,22.90
2023-05-25T04:19:41.708Z,23.13
2023-05-25T04:22:28.469Z,22.40
2023-05-25T04:25:01.564Z,22.33
2023-05-25T04:27:48.440Z,22.42
2023-05-25T04:30:29.480Z,23.83
2023-05-25T04:33:24.516Z,23.48
2023-05-25T04:36:20.458Z,23.42
2023-05-25T04:39:10.455Z,23.45
2023-05-25T04:41:43.592Z,21.50
2023-05-25T04:44:37.459Z,23.27
2023-05-25T04:47:25.503Z,23.42
2023-05-25T04:49:59.574Z,22.80
2023-05-25T04:52:46.461Z,22.63
2023-05-25T04:55:26.515Z,22.08
2023-05-25T04:58:20.469Z,21.55
2023-05-25T05:01:07.563Z,23.60
2023-05-25T05:03:40.605Z,22.58
2023-05-25T05:06:28.459Z,22.55
2023-05-25T05:09:01.592Z,23.17
2023-05-25T05:11:48.484Z,23.40
2023-05-25T05:14:21.584Z,20.67
2023-05-25T05:17:08.476Z,22.23
2023-05-25T05:19:48.496Z,23.15
2023-05-25T05:22:42.503Z,22.52
2023-05-25T05:25:36.470Z,22.38
2023-05-25T05:28:33.487Z,23.80
2023-05-25T05:31:27.514Z,23.20
2023-05-25T05:34:21.501Z,21.65
2023-05-25T05:37:15.501Z,21.60
2023-05-25T05:40:09.508Z,21.35
2023-05-25T05:42:56.500Z,21.60
2023-05-25T05:45:29.590Z,22.67
2023-05-25T05:48:16.492Z,23.70
2023-05-25T05:50:49.737Z,23.60
2023-05-25T05:53:36.526Z,22.52
2023-05-25T05:56:11.327Z,24.92
2023-05-25T05:59:00.488Z,23.27
2023-05-25T06:01:33.601Z,24.13
2023-05-25T06:04:21.501Z,23.13
2023-05-25T06:06:55.848Z,23.15
2023-05-25T06:09:42.513Z,22.52
2023-05-25T06:12:31.582Z,21.13
2023-05-25T06:15:18.516Z,22.20
2023-05-25T06:17:51.635Z,20.60
2023-05-25T06:20:38.613Z,20.90
2023-05-25T06:23:20.530Z,23.15
2023-05-25T06:26:20.511Z,22.05
2023-05-25T06:29:07.506Z,21.17
2023-05-25T06:31:47.570Z,21.10
2023-05-25T06:34:35.940Z,21.33
2023-05-25T06:37:10.894Z,22.25
2023-05-25T06:39:57.775Z,23.67
2023-05-25T06:42:30.616Z,21.85
2023-05-25T06:45:17.577Z,21.50
2023-05-25T06:47:50.676Z,21.13
2023-05-25T06:50:37.516Z,22.30
2023-05-25T06:53:17.525Z,21.60
2023-05-25T06:56:11.547Z,21.40
2023-05-25T06:59:05.550Z,23.83
2023-05-25T07:02:02.540Z,22.10
2023-05-25T07:04:49.582Z,23.88
2023-05-25T07:07:29.552Z,24.85
2023-05-25T07:10:16.583Z,23.08
2023-05-25T07:12:56.541Z,23.88
2023-05-25T07:15:43.848Z,22.75
2023-05-25T07:18:24.575Z,23.42
2023-05-25T07:21:18.537Z,21.83
2023-05-25T07:24:05.557Z,26.05
2023-05-25T07:26:47.572Z,22.85
2023-05-25T07:29:44.540Z,22.30
2023-05-25T07:32:31.565Z,22.95
2023-05-25T07:35:04.650Z,22.27
2023-05-25T07:37:51.563Z,22.27
2023-05-25T07:40:31.575Z,22.73
2023-05-25T07:43:25.556Z,22.90
2023-05-25T07:46:19.592Z,23.17
2023-05-25T07:49:06.557Z,22.63
2023-05-25T07:51:46.581Z,23.13
2023-05-25T07:54:40.640Z,22.83
2023-05-25T07:57:34.567Z,23.50
2023-05-25T08:00:28.645Z,23.23
2023-05-25T08:03:15.638Z,24.25
2023-05-25T08:05:55.571Z,24.33
2023-05-25T08:08:51.569Z,24.75
2023-05-25T08:11:38.585Z,24.17
2023-05-25T08:14:18.580Z,23.85
2023-05-25T08:17:05.587Z,24.52
2023-05-25T08:19:38.686Z,27.33
2023-05-25T08:22:25.566Z,22.95
2023-05-25T08:24:58.676Z,26.20
2023-05-25T08:27:45.565Z,26.35
2023-05-25T08:30:18.738Z,26.38
2023-05-25T08:33:05.586Z,26.42
2023-05-25T08:35:43.273Z,24.65
2023-05-25T08:38:32.573Z,23.25
2023-05-25T08:41:17.590Z,24.63
2023-05-25T08:44:14.793Z,25.95
2023-05-25T08:47:03.585Z,24.00
2023-05-25T08:49:39.928Z,24.38
2023-05-25T08:52:33.634Z,22.95
2023-05-25T08:55:11.709Z,23.33
2023-05-25T08:58:03.617Z,23.80
2023-05-25T09:00:57.582Z,22.63
2023-05-25T09:03:52.649Z,22.27
2023-05-25T09:06:45.301Z,23.02
2023-05-25T09:09:20.738Z,23.70
2023-05-25T09:12:08.599Z,24.92
2023-05-25T09:14:52.596Z,23.95
2023-05-25T09:17:46.654Z,22.75
2023-05-25T09:20:41.437Z,23.48
2023-05-25T09:23:29.625Z,23.35
2023-05-25T09:26:04.747Z,22.38
2023-05-25T09:28:55.671Z,23.45
2023-05-25T09:31:30.857Z,25.33
2023-05-25T09:34:19.601Z,22.92
2023-05-25T09:36:52.856Z,22.55
2023-05-25T09:39:39.702Z,23.35
2023-05-25T09:42:12.762Z,23.20
2023-05-25T09:44:59.625Z,19.77
2023-05-25T09:47:37.426Z,20.85
2023-05-25T09:50:25.616Z,22.77
2023-05-25T09:53:04.117Z,21.63
2023-05-25T09:55:54.275Z,20.63
2023-05-25T09:58:36.618Z,21.88
2023-05-25T10:01:23.663Z,22.63
2023-05-25T10:04:04.347Z,21.23
2023-05-25T10:06:56.618Z,21.67
2023-05-25T10:09:36.843Z,22.38
2023-05-25T10:12:27.641Z,23.67
2023-05-25T10:15:01.746Z,23.08
2023-05-25T10:18:01.712Z,22.55
2023-05-25T10:20:43.723Z,22.30
2023-05-25T10:23:31.660Z,23.30
2023-05-25T10:26:13.680Z,23.05
2023-05-25T10:29:13.660Z,21.88
2023-05-25T10:32:00.686Z,23.00
2023-05-25T10:34:36.076Z,22.80
2023-05-25T10:37:22.649Z,22.48
2023-05-25T10:39:56.760Z,20.95
2023-05-25T10:42:45.668Z,21.67
2023-05-25T10:45:22.654Z,22.92
2023-05-25T10:48:09.758Z,21.88
2023-05-25T10:50:43.824Z,21.05
2023-05-25T10:53:30.685Z,22.33
2023-05-25T10:56:07.384Z,22.77
2023-05-25T10:58:54.666Z,22.35
2023-05-25T11:01:28.932Z,22.00
2023-05-25T11:04:18.724Z,23.02
2023-05-25T11:06:54.780Z,24.25
2023-05-25T11:09:47.680Z,22.70
2023-05-25T11:12:28.852Z,21.25
2023-05-25T11:15:21.691Z,20.48
2023-05-25T11:18:06.052Z,22.00
2023-05-25T11:20:52.757Z,23.77
2023-05-25T11:23:29.968Z,21.90
2023-05-25T11:26:30.695Z,21.83
2023-05-25T11:29:04.784Z,23.13
2023-05-25T11:31:57.724Z,24.08
2023-05-25T11:34:41.688Z,23.50
2023-05-25T11:37:37.686Z,21.92
2023-05-25T11:40:24.757Z,24.02
2023-05-25T11:43:06.695Z,23.83
2023-05-25T11:46:09.746Z,23.45
2023-05-25T11:48:58.702Z,23.42
2023-05-25T11:51:40.755Z,23.67
2023-05-25T11:54:41.727Z,22.23
2023-05-25T11:57:37.696Z,20.50
2023-05-25T12:00:32.758Z,20.58
2023-05-25T12:03:12.805Z,22.85
2023-05-25T12:06:06.763Z,21.67
2023-05-25T12:08:53.721Z,19.35
2023-05-25T12:11:45.356Z,19.17
2023-05-25T12:14:31.704Z,21.55
2023-05-25T12:17:04.925Z,22.83
2023-05-25T12:19:51.752Z,21.77
2023-05-25T12:22:31.723Z,20.35
2023-05-25T12:25:35.739Z,22.27
2023-05-25T12:28:32.762Z,21.88
2023-05-25T12:31:06.216Z,22.73
2023-05-25T12:34:10.749Z,23.02
2023-05-25T12:36:58.836Z,20.08
2023-05-25T12:39:45.736Z,22.42
2023-05-25T12:42:26.582Z,22.38
2023-05-25T12:45:20.751Z,21.48
2023-05-25T12:48:07.776Z,21.42
2023-05-25T12:50:48.795Z,23.30
2023-05-25T12:53:42.763Z,20.58
2023-05-25T12:56:29.759Z,20.95
2023-05-25T12:59:09.732Z,21.20
2023-05-25T13:02:03.778Z,22.52
2023-05-25T13:04:50.798Z,23.42
2023-05-25T13:07:23.928Z,24.42
2023-05-25T13:10:10.817Z,22.33
2023-05-25T13:12:44.848Z,22.63
2023-05-25T13:15:32.756Z,23.38
2023-05-25T13:18:12.883Z,22.80
2023-05-25T13:21:06.933Z,22.73
2023-05-25T13:23:53.767Z,22.75
2023-05-25T13:26:33.749Z,23.58
2023-05-25T13:29:20.769Z,24.08
2023-05-25T13:31:53.905Z,22.35
2023-05-25T13:34:41.779Z,22.23
2023-05-25T13:37:15.442Z,22.75
2023-05-25T13:40:02.760Z,23.35
2023-05-25T13:42:36.284Z,24.25
2023-05-25T13:45:29.757Z,22.10
2023-05-25T13:48:23.862Z,22.17
2023-05-25T13:51:17.776Z,22.67
2023-05-25T13:54:04.773Z,24.38
2023-05-25T13:56:37.922Z,24.20
2023-05-25T13:59:24.775Z,23.83
2023-05-25T14:01:57.941Z,24.80
2023-05-25T14:04:44.783Z,24.15
2023-05-25T14:07:17.929Z,24.67
2023-05-25T14:10:05.954Z,24.63
2023-05-25T14:12:39.921Z,24.15
2023-05-25T14:15:28.707Z,22.88
2023-05-25T14:18:01.945Z,24.63
2023-05-25T14:20:48.893Z,23.02
2023-05-25T14:23:21.970Z,23.58
2023-05-25T14:26:11.830Z,25.15
2023-05-25T14:28:44.925Z,24.02
2023-05-25T14:31:31.887Z,22.67
2023-05-25T14:34:04.903Z,24.02
2023-05-25T14:36:51.851Z,23.25
2023-05-25T14:39:25.010Z,22.90
2023-05-25T14:42:12.855Z,26.48
2023-05-25T14:44:52.791Z,22.75
2023-05-25T14:47:46.887Z,23.10
2023-05-25T14:50:42.632Z,23.60
2023-05-25T14:53:29.823Z,22.92
2023-05-25T14:56:11.381Z,23.17
2023-05-25T14:59:04.856Z,24.40
2023-05-25T15:01:52.937Z,23.48
2023-05-25T15:04:27.196Z,23.80
2023-05-25T15:07:16.557Z,23.67
2023-05-25T15:09:49.943Z,25.38
2023-05-25T15:12:39.821Z,25.23
2023-05-25T15:15:14.753Z,23.73
2023-05-25T15:18:01.852Z,24.25
2023-05-25T15:20:35.092Z,24.65
2023-05-25T15:23:24.855Z,25.65
2023-05-25T15:26:04.919Z,26.20
2023-05-25T15:28:51.902Z,24.88
2023-05-25T15:31:25.317Z,25.08
2023-05-25T15:34:11.881Z,27.35
2023-05-25T15:36:44.980Z,30.55
2023-05-25T15:39:31.928Z,25.95
2023-05-25T15:42:11.884Z,28.00
2023-05-25T15:44:58.861Z,26.88
2023-05-25T15:47:52.965Z,25.67
2023-05-25T15:50:46.863Z,27.15
2023-05-25T15:53:40.896Z,27.50
2023-05-25T15:56:28.909Z,27.23
2023-05-25T15:59:02.337Z,26.65
2023-05-25T16:01:48.910Z,28.55
2023-05-25T16:04:22.012Z,26.95
2023-05-25T16:07:08.907Z,28.25
2023-05-25T16:09:42.032Z,27.83
2023-05-25T16:12:28.901Z,27.67
2023-05-25T16:15:08.908Z,26.75
2023-05-25T16:18:02.862Z,26.92
2023-05-25T16:21:01.896Z,27.73
2023-05-25T16:23:55.885Z,25.17
2023-05-25T16:26:49.917Z,26.75
2023-05-25T16:29:36.900Z,28.33
2023-05-25T16:32:10.133Z,27.00
2023-05-25T16:34:56.908Z,28.25
2023-05-25T16:37:29.961Z,28.15
2023-05-25T16:40:19.910Z,29.38
2023-05-25T16:42:59.882Z,25.58
2023-05-25T16:45:53.955Z,27.17
2023-05-25T16:48:40.998Z,27.55
2023-05-25T16:51:15.910Z,28.58
2023-05-25T16:54:02.905Z,29.35
2023-05-25T16:56:42.952Z,30.08
2023-05-25T16:59:36.905Z,29.48
2023-05-25T17:02:24.045Z,29.52
2023-05-25T17:05:06.949Z,28.77
2023-05-25T17:07:54.055Z,30.75
2023-05-25T17:10:27.004Z,30.88
2023-05-25T17:13:14.954Z,30.05
2023-05-25T17:15:48.271Z,31.15
2023-05-25T17:18:34.964Z,31.42
2023-05-25T17:21:08.061Z,32.35
2023-05-25T17:23:56.911Z,30.80
2023-05-25T17:26:36.913Z,32.47
2023-05-25T17:29:30.894Z,30.33
2023-05-25T17:32:24.920Z,31.10
2023-05-25T17:35:20.907Z,30.83
2023-05-25T17:38:14.925Z,33.33
2023-05-25T17:41:08.911Z,31.30
2023-05-25T17:44:02.932Z,30.95
2023-05-25T17:46:56.903Z,33.17
2023-05-25T17:49:51.111Z,30.80
2023-05-25T17:52:44.913Z,30.40
2023-05-25T17:55:32.027Z,30.38
2023-05-25T17:58:05.042Z,31.73
2023-05-25T18:00:52.033Z,32.20
2023-05-25T18:03:26.080Z,30.85
2023-05-25T18:06:12.942Z,29.73
2023-05-25T18:08:52.933Z,32.13
2023-05-25T18:11:46.907Z,31.13
2023-05-25T18:14:33.938Z,31.10
2023-05-25T18:17:15.011Z,32.20
2023-05-25T18:20:08.949Z,29.88
2023-05-25T18:22:55.952Z,31.55
2023-05-25T18:25:29.042Z,31.42
2023-05-25T18:28:15.984Z,31.67
2023-05-25T18:30:49.136Z,31.45
2023-05-25T18:33:35.979Z,31.98
2023-05-25T18:36:09.062Z,33.03
2023-05-25T18:38:55.944Z,32.38
2023-05-25T18:41:29.057Z,31.23
2023-05-25T18:44:15.961Z,33.28
2023-05-25T18:46:57.980Z,31.73
2023-05-25T18:49:51.955Z,32.53
2023-05-25T18:52:45.953Z,32.10
2023-05-25T18:55:35.931Z,32.33
2023-05-25T18:58:09.129Z,32.72
2023-05-25T19:00:55.952Z,30.05
2023-05-25T19:03:29.119Z,35.58
2023-05-25T19:06:15.945Z,35.08
2023-05-25T19:08:49.690Z,33.47
2023-05-25T19:11:35.940Z,34.45
2023-05-25T19:14:16.008Z,33.42
2023-05-25T19:17:05.250Z,29.70
2023-05-25T19:19:39.051Z,31.35
2023-05-25T19:22:25.959Z,31.27
2023-05-25T19:25:05.971Z,32.15
2023-05-25T19:27:52.991Z,31.23
2023-05-25T19:30:33.016Z,32.85
2023-05-25T19:33:27.961Z,31.63
2023-05-25T19:36:22.130Z,33.40
2023-05-25T19:38:55.060Z,34.15
2023-05-25T19:41:43.959Z,31.40
2023-05-25T19:44:17.295Z,32.08
2023-05-25T19:47:03.969Z,30.45
2023-05-25T19:49:43.964Z,31.90
2023-05-25T19:52:33.020Z,34.33
2023-05-25T19:55:13.003Z,34.92
2023-05-25T19:57:59.957Z,31.83
2023-05-25T20:00:33.122Z,31.63
2023-05-25T20:03:22.098Z,32.47
2023-05-25T20:06:02.992Z,32.03
2023-05-25T20:08:57.007Z,31.67
2023-05-25T20:11:43.967Z,30.42
2023-05-25T20:14:18.569Z,31.77
2023-05-25T20:17:06.993Z,31.23
2023-05-25T20:19:40.180Z,31.25
2023-05-25T20:22:28.002Z,31.35
2023-05-25T20:25:07.986Z,30.85
2023-05-25T20:27:54.994Z,31.25
2023-05-25T20:30:28.091Z,32.00
2023-05-25T20:33:14.987Z,33.20
2023-05-25T20:35:48.297Z,33.03
2023-05-25T20:38:34.983Z,32.50
2023-05-25T20:41:14.997Z,32.72
2023-05-25T20:44:09.028Z,32.75
2023-05-25T20:47:10.983Z,32.15
2023-05-25T20:50:05.026Z,29.60
2023-05-25T20:52:59.011Z,28.88
2023-05-25T20:55:46.081Z,29.70
2023-05-25T20:58:20.195Z,30.48
2023-05-25T21:01:07.035Z,31.45
2023-05-25T21:03:48.125Z,30.17
2023-05-25T21:06:35.051Z,31.50
2023-05-25T21:09:09.103Z,29.73
2023-05-25T21:11:56.058Z,30.92
2023-05-25T21:14:29.874Z,28.98
2023-05-25T21:17:17.095Z,30.67
2023-05-25T21:19:50.294Z,29.50
2023-05-25T21:22:37.057Z,29.10
2023-05-25T21:25:11.699Z,30.88
2023-05-25T21:27:58.036Z,30.17
2023-05-25T21:30:31.134Z,29.33
2023-05-25T21:33:18.054Z,28.98
2023-05-25T21:35:58.034Z,28.83
2023-05-25T21:38:52.041Z,29.20
2023-05-25T21:41:39.016Z,28.60
2023-05-25T21:44:12.136Z,29.08
2023-05-25T21:47:06.077Z,30.50
2023-05-25T21:50:00.054Z,30.08
2023-05-25T21:52:48.053Z,27.63
2023-05-25T21:55:28.050Z,28.30
2023-05-25T21:58:15.039Z,28.60
2023-05-25T22:00:48.245Z,29.60
2023-05-25T22:03:35.223Z,26.83
2023-05-25T22:06:08.163Z,27.42
2023-05-25T22:08:55.090Z,27.65
2023-05-25T22:11:35.068Z,28.83
2023-05-25T22:14:22.030Z,27.20
2023-05-25T22:16:55.237Z,26.90
2023-05-25T22:19:44.836Z,28.60
2023-05-25T22:22:18.127Z,27.00
2023-05-25T22:25:05.175Z,26.10
2023-05-25T22:27:39.171Z,26.13
2023-05-25T22:30:26.072Z,26.50
2023-05-25T22:32:59.301Z,26.88
2023-05-25T22:35:46.305Z,27.38
2023-05-25T22:38:20.173Z,27.50
2023-05-25T22:41:07.090Z,26.70
2023-05-25T22:43:40.168Z,27.23
2023-05-25T22:46:34.097Z,28.10
2023-05-25T22:49:28.073Z,28.17
2023-05-25T22:52:18.094Z,29.35
2023-05-25T22:54:58.053Z,26.58
2023-05-25T22:57:52.056Z,27.38
2023-05-25T23:00:39.097Z,28.95
2023-05-25T23:03:12.345Z,27.55
2023-05-25T23:05:59.073Z,28.58
2023-05-25T23:08:32.252Z,29.08
2023-05-25T23:11:19.089Z,28.83
2023-05-25T23:13:54.735Z,28.77
2023-05-25T23:16:41.208Z,27.90
2023-05-25T23:19:14.180Z,29.50
2023-05-25T23:22:01.084Z,28.75
2023-05-25T23:24:41.090Z,28.23
2023-05-25T23:27:35.109Z,28.52
2023-05-25T23:30:29.080Z,28.55
2023-05-25T23:33:17.096Z,27.45
2023-05-25T23:35:58.116Z,29.85
2023-05-25T23:38:52.137Z,29.13
2023-05-25T23:41:46.086Z,29.30
2023-05-25T23:44:33.084Z,29.38
2023-05-25T23:47:06.261Z,29.63
2023-05-25T23:49:53.081Z,28.40
2023-05-25T23:52:26.178Z,29.25
2023-05-25T23:55:14.082Z,31.48
2023-05-25T23:57:47.229Z,31.05
